createdAt,value
2022-08-27T00:01:45.999Z,45.38
2022-08-27T00:04:13.823Z,46.00
2022-08-27T00:06:41.607Z,45.36
2022-08-27T00:09:09.386Z,45.60
2022-08-27T00:11:37.464Z,45.42
2022-08-27T00:14:05.408Z,45.46
2022-08-27T00:16:34.654Z,46.03
2022-08-27T00:19:03.413Z,45.41
2022-08-27T00:21:33.040Z,45.65
2022-08-27T00:24:00.901Z,45.61
2022-08-27T00:26:28.969Z,45.91
2022-08-27T00:28:56.777Z,45.47
2022-08-27T00:31:27.315Z,45.56
2022-08-27T00:33:56.938Z,46.02
2022-08-27T00:36:24.828Z,45.37
2022-08-27T00:38:54.089Z,46.00
2022-08-27T00:41:22.122Z,45.82
2022-08-27T00:43:53.766Z,45.84
2022-08-27T00:46:24.558Z,45.97
2022-08-27T00:48:53.638Z,45.80
2022-08-27T00:51:22.840Z,45.42
2022-08-27T00:53:51.208Z,45.35
2022-08-27T00:56:20.380Z,45.81
2022-08-27T00:58:51.638Z,45.53
2022-08-27T01:01:20.718Z,45.71
2022-08-27T01:03:50.619Z,46.13
2022-08-27T01:06:18.896Z,45.88
2022-08-27T01:08:49.857Z,45.75
2022-08-27T01:11:18.798Z,45.43
2022-08-27T01:14:00.673Z,46.06
2022-08-27T01:16:33.952Z,45.27
2022-08-27T01:19:01.966Z,45.43
2022-08-27T01:21:34.002Z,45.67
2022-08-27T01:24:05.851Z,45.79
2022-08-27T01:26:35.026Z,45.39
2022-08-27T01:29:02.754Z,45.69
2022-08-27T01:31:30.675Z,45.57
2022-08-27T01:34:00.163Z,45.91
2022-08-27T01:36:27.956Z,45.16
2022-08-27T01:38:55.848Z,45.52
2022-08-27T01:41:25.420Z,46.02
2022-08-27T01:43:54.974Z,45.66
2022-08-27T01:46:23.097Z,45.95
2022-08-27T01:48:51.014Z,45.30
2022-08-27T01:51:19.431Z,45.61
2022-08-27T01:53:47.494Z,45.30
2022-08-27T01:56:15.647Z,45.40
2022-08-27T01:58:43.733Z,45.68
2022-08-27T02:01:14.070Z,45.70
2022-08-27T02:03:42.423Z,45.18
2022-08-27T02:06:11.185Z,45.94
2022-08-27T02:08:39.047Z,45.83
2022-08-27T02:11:08.229Z,45.66
2022-08-27T02:13:36.318Z,45.73
2022-08-27T02:16:04.566Z,45.56
2022-08-27T02:18:33.832Z,45.23
2022-08-27T02:21:02.195Z,45.91
2022-08-27T02:23:30.356Z,45.35
2022-08-27T02:25:58.140Z,45.46
2022-08-27T02:28:26.136Z,45.50
2022-08-27T02:30:53.928Z,45.35
2022-08-27T02:33:22.376Z,45.83
2022-08-27T02:35:51.565Z,45.97
2022-08-27T02:38:20.652Z,45.95
2022-08-27T02:40:48.556Z,45.67
2022-08-27T02:43:25.318Z,45.23
2022-08-27T02:45:53.493Z,45.70
2022-08-27T02:48:21.435Z,45.34
2022-08-27T02:50:49.304Z,45.50
2022-08-27T02:53:19.083Z,45.81
2022-08-27T02:55:46.911Z,45.75
2022-08-27T02:58:16.775Z,45.32
2022-08-27T03:00:44.662Z,45.81
2022-08-27T03:03:12.763Z,45.95
2022-08-27T03:05:41.131Z,45.69
2022-08-27T03:08:08.960Z,45.23
2022-08-27T03:10:38.094Z,45.75
2022-08-27T03:13:06.167Z,45.56
2022-08-27T03:15:33.985Z,45.79
2022-08-27T03:18:19.888Z,45.28
2022-08-27T03:20:48.520Z,45.11
2022-08-27T03:23:16.796Z,45.15
2022-08-27T03:25:47.265Z,45.25
2022-08-27T03:28:22.508Z,45.86
2022-08-27T03:30:51.840Z,45.84
2022-08-27T03:33:20.478Z,45.27
2022-08-27T03:35:51.673Z,45.45
2022-08-27T03:38:20.042Z,45.28
2022-08-27T03:40:49.223Z,45.84
2022-08-27T03:43:17.869Z,45.52
2022-08-27T03:45:52.785Z,45.36
2022-08-27T03:48:30.051Z,45.78
2022-08-27T03:50:57.810Z,45.81
2022-08-27T03:53:26.000Z,45.13
2022-08-27T03:55:55.191Z,45.66
2022-08-27T03:58:23.010Z,45.61
2022-08-27T04:00:50.765Z,45.10
2022-08-27T04:03:18.852Z,45.17
2022-08-27T04:05:46.637Z,45.62
2022-08-27T04:08:14.463Z,45.70
2022-08-27T04:10:42.305Z,45.07
2022-08-27T04:13:11.897Z,45.25
2022-08-27T04:15:44.497Z,45.75
2022-08-27T04:18:13.749Z,45.23
2022-08-27T04:20:41.493Z,45.55
2022-08-27T04:23:09.550Z,45.64
2022-08-27T04:25:39.973Z,45.22
2022-08-27T04:28:07.818Z,45.39
2022-08-27T04:30:39.639Z,45.07
2022-08-27T04:33:07.711Z,45.78
2022-08-27T04:35:35.619Z,45.51
2022-08-27T04:38:04.115Z,45.22
2022-08-27T04:40:46.246Z,45.73
2022-08-27T04:43:16.635Z,45.35
2022-08-27T04:45:47.608Z,45.57
2022-08-27T04:48:16.421Z,45.30
2022-08-27T04:50:44.652Z,45.36
2022-08-27T04:53:13.753Z,44.92
2022-08-27T04:55:44.704Z,45.29
2022-08-27T04:58:12.569Z,45.32
2022-08-27T05:00:44.091Z,45.42
2022-08-27T05:03:14.022Z,45.38
2022-08-27T05:05:42.916Z,45.35
2022-08-27T05:08:13.208Z,45.24
2022-08-27T05:10:42.218Z,45.24
2022-08-27T05:13:10.287Z,44.87
2022-08-27T05:15:38.231Z,45.55
2022-08-27T05:18:07.092Z,45.17
2022-08-27T05:20:36.359Z,44.95
2022-08-27T05:23:04.459Z,45.71
2022-08-27T05:25:32.243Z,44.89
2022-08-27T05:28:00.068Z,45.08
2022-08-27T05:30:28.404Z,44.97
2022-08-27T05:32:56.576Z,45.30
2022-08-27T05:35:24.337Z,45.48
2022-08-27T05:37:54.638Z,44.93
2022-08-27T05:40:23.486Z,44.98
2022-08-27T05:42:51.678Z,45.09
2022-08-27T05:45:19.578Z,44.97
2022-08-27T05:47:47.378Z,45.12
2022-08-27T05:50:15.358Z,45.20
2022-08-27T05:52:43.578Z,45.50
2022-08-27T05:55:12.798Z,45.52
2022-08-27T05:57:40.540Z,45.60
2022-08-27T06:00:29.568Z,45.14
2022-08-27T06:02:57.483Z,44.97
2022-08-27T06:05:25.305Z,45.42
2022-08-27T06:07:53.216Z,44.83
2022-08-27T06:10:22.494Z,45.15
2022-08-27T06:12:53.773Z,44.97
2022-08-27T06:15:24.616Z,44.85
2022-08-27T06:17:52.620Z,45.36
2022-08-27T06:20:20.849Z,45.59
2022-08-27T06:22:49.934Z,44.95
2022-08-27T06:25:17.901Z,45.00
2022-08-27T06:27:47.072Z,45.46
2022-08-27T06:30:17.530Z,44.90
2022-08-27T06:32:46.175Z,44.90
2022-08-27T06:35:14.090Z,44.87
2022-08-27T06:37:41.857Z,45.54
2022-08-27T06:40:11.484Z,45.10
2022-08-27T06:42:39.611Z,45.03
2022-08-27T06:45:12.532Z,44.87
2022-08-27T06:47:40.355Z,45.15
2022-08-27T06:50:08.999Z,45.29
2022-08-27T06:52:37.079Z,45.13
2022-08-27T06:55:05.687Z,44.96
2022-08-27T06:57:33.468Z,44.81
2022-08-27T07:00:01.724Z,45.25
2022-08-27T07:02:31.768Z,45.10
2022-08-27T07:04:59.876Z,44.86
2022-08-27T07:07:34.419Z,45.16
2022-08-27T07:10:07.542Z,45.52
2022-08-27T07:12:35.342Z,44.81
2022-08-27T07:15:03.262Z,44.87
2022-08-27T07:17:33.956Z,45.44
2022-08-27T07:20:01.808Z,45.50
2022-08-27T07:22:29.945Z,45.46
2022-08-27T07:24:57.721Z,45.39
2022-08-27T07:27:25.550Z,44.82
2022-08-27T07:29:53.427Z,45.38
2022-08-27T07:32:21.506Z,45.50
2022-08-27T07:34:59.639Z,44.71
2022-08-27T07:37:32.467Z,45.11
2022-08-27T07:40:04.774Z,45.21
2022-08-27T07:42:50.794Z,45.46
2022-08-27T07:45:18.748Z,45.49
2022-08-27T07:47:46.632Z,45.35
2022-08-27T07:50:15.930Z,45.08
2022-08-27T07:52:44.681Z,45.43
2022-08-27T07:55:12.514Z,44.97
2022-08-27T07:57:40.433Z,44.91
2022-08-27T08:00:11.738Z,45.35
2022-08-27T08:02:40.007Z,44.79
2022-08-27T08:05:08.239Z,45.08
2022-08-27T08:07:38.503Z,45.16
2022-08-27T08:10:07.188Z,44.70
2022-08-27T08:12:36.242Z,44.80
2022-08-27T08:15:04.282Z,45.48
2022-08-27T08:17:33.679Z,45.38
2022-08-27T08:20:24.105Z,44.67
2022-08-27T08:22:50.676Z,44.75
2022-08-27T08:25:18.556Z,45.40
2022-08-27T08:27:46.995Z,44.79
2022-08-27T08:30:15.012Z,45.07
2022-08-27T08:32:44.040Z,44.74
2022-08-27T08:35:12.006Z,45.17
2022-08-27T08:37:39.857Z,44.76
2022-08-27T08:40:10.603Z,44.84
2022-08-27T08:42:41.317Z,45.07
2022-08-27T08:45:11.641Z,45.29
2022-08-27T08:47:43.224Z,44.81
2022-08-27T08:50:15.755Z,44.66
2022-08-27T08:52:50.890Z,45.02
2022-08-27T08:55:41.296Z,45.24
2022-08-27T08:58:15.206Z,44.86
2022-08-27T09:00:44.184Z,45.28
2022-08-27T09:03:12.762Z,44.98
2022-08-27T09:05:41.847Z,44.86
2022-08-27T09:08:35.312Z,45.43
2022-08-27T09:11:08.202Z,45.32
2022-08-27T09:13:44.890Z,44.95
2022-08-27T09:16:12.739Z,45.11
2022-08-27T09:18:41.503Z,44.96
2022-08-27T09:21:17.511Z,45.10
2022-08-27T09:24:02.201Z,45.02
2022-08-27T09:26:33.420Z,44.88
2022-08-27T09:29:20.043Z,44.84
2022-08-27T09:31:50.718Z,45.03
2022-08-27T09:34:18.510Z,44.94
2022-08-27T09:37:00.022Z,45.35
2022-08-27T09:39:36.080Z,45.03
2022-08-27T09:42:06.050Z,44.85
2022-08-27T09:44:33.803Z,45.32
2022-08-27T09:47:03.370Z,45.24
2022-08-27T09:49:31.524Z,44.76
2022-08-27T09:51:59.662Z,45.32
2022-08-27T09:54:42.491Z,45.29
2022-08-27T09:57:12.287Z,45.07
2022-08-27T09:59:41.457Z,45.47
2022-08-27T10:02:15.331Z,45.07
2022-08-27T10:04:50.163Z,44.73
2022-08-27T10:07:23.918Z,45.27
2022-08-27T10:09:54.197Z,44.62
2022-08-27T10:12:26.024Z,44.74
2022-08-27T10:14:55.535Z,45.04
2022-08-27T10:17:26.244Z,45.28
2022-08-27T10:19:59.673Z,44.63
2022-08-27T10:22:34.615Z,45.01
2022-08-27T10:25:08.647Z,44.90
2022-08-27T10:27:42.102Z,44.63
2022-08-27T10:30:12.100Z,44.85
2022-08-27T10:32:48.282Z,45.38
2022-08-27T10:35:22.260Z,45.29
2022-08-27T10:37:53.879Z,44.75
2022-08-27T10:40:23.531Z,44.82
2022-08-27T10:42:57.738Z,44.93
2022-08-27T10:45:31.627Z,44.76
2022-08-27T10:48:07.575Z,45.25
2022-08-27T10:50:38.568Z,45.00
2022-08-27T10:53:07.219Z,44.61
2022-08-27T10:55:37.351Z,44.97
2022-08-27T10:58:16.771Z,45.15
2022-08-27T11:00:47.021Z,44.94
2022-08-27T11:03:16.901Z,45.24
2022-08-27T11:05:48.134Z,44.72
2022-08-27T11:08:18.448Z,44.96
2022-08-27T11:10:48.133Z,44.79
2022-08-27T11:13:20.673Z,44.93
2022-08-27T11:15:49.318Z,44.66
2022-08-27T11:18:19.958Z,44.53
2022-08-27T11:20:50.582Z,44.56
2022-08-27T11:23:20.054Z,45.10
2022-08-27T11:25:51.948Z,44.67
2022-08-27T11:28:22.931Z,45.05
2022-08-27T11:31:00.816Z,45.15
2022-08-27T11:33:30.771Z,44.90
2022-08-27T11:36:10.663Z,44.68
2022-08-27T11:38:45.748Z,44.91
2022-08-27T11:41:26.668Z,45.26
2022-08-27T11:43:55.857Z,45.16
2022-08-27T11:46:25.183Z,45.09
2022-08-27T11:48:57.944Z,45.11
2022-08-27T11:51:32.922Z,45.18
2022-08-27T11:54:01.885Z,45.25
2022-08-27T11:56:41.579Z,44.54
2022-08-27T11:59:21.678Z,44.80
2022-08-27T12:01:49.790Z,45.26
2022-08-27T12:04:34.061Z,45.08
2022-08-27T12:07:04.641Z,44.78
2022-08-27T12:09:46.334Z,44.72
2022-08-27T12:12:16.590Z,44.74
2022-08-27T12:14:48.587Z,45.09
2022-08-27T12:17:23.899Z,44.47
2022-08-27T12:20:00.651Z,44.75
2022-08-27T12:23:08.125Z,45.22
2022-08-27T12:25:36.011Z,45.12
2022-08-27T12:28:05.157Z,45.16
2022-08-27T12:30:35.598Z,45.28
2022-08-27T12:33:10.964Z,44.88
2022-08-27T12:35:44.081Z,44.94
2022-08-27T12:38:16.035Z,45.09
2022-08-27T12:40:48.762Z,45.31
2022-08-27T12:43:20.173Z,44.58
2022-08-27T12:45:49.976Z,45.25
2022-08-27T12:48:20.356Z,45.09
2022-08-27T12:50:52.604Z,45.11
2022-08-27T12:53:37.359Z,44.53
2022-08-27T12:56:28.118Z,44.62
2022-08-27T12:58:59.547Z,44.44
2022-08-27T13:01:43.357Z,44.99
2022-08-27T13:04:16.357Z,44.76
2022-08-27T13:06:45.867Z,45.14
2022-08-27T13:09:13.675Z,44.54
2022-08-27T13:11:45.905Z,44.51
2022-08-27T13:14:14.814Z,45.03
2022-08-27T13:16:46.994Z,44.54
2022-08-27T13:19:17.001Z,44.81
2022-08-27T13:21:47.337Z,45.15
2022-08-27T13:24:15.090Z,45.06
2022-08-27T13:26:50.258Z,45.19
2022-08-27T13:29:18.173Z,44.77
2022-08-27T13:31:49.607Z,44.76
2022-08-27T13:34:20.263Z,44.71
2022-08-27T13:36:55.511Z,44.91
2022-08-27T13:39:23.460Z,44.86
2022-08-27T13:41:51.324Z,45.11
2022-08-27T13:44:21.826Z,45.00
2022-08-27T13:46:52.107Z,45.17
2022-08-27T13:49:22.520Z,44.49
2022-08-27T13:51:51.117Z,44.50
2022-08-27T13:54:18.166Z,44.53
2022-08-27T13:57:03.742Z,44.55
2022-08-27T13:59:32.368Z,44.49
2022-08-27T14:02:03.118Z,44.80
2022-08-27T14:04:38.090Z,44.84
2022-08-27T14:07:11.550Z,45.09
2022-08-27T14:09:43.254Z,44.57
2022-08-27T14:12:11.552Z,44.76
2022-08-27T14:14:40.666Z,44.41
2022-08-27T14:17:24.850Z,44.55
2022-08-27T14:19:54.591Z,44.41
2022-08-27T14:22:23.035Z,45.02
2022-08-27T14:24:50.835Z,44.71
2022-08-27T14:27:20.070Z,44.64
2022-08-27T14:29:48.657Z,45.14
2022-08-27T14:32:19.187Z,45.10
2022-08-27T14:34:47.353Z,44.98
2022-08-27T14:37:15.628Z,44.66
2022-08-27T14:39:43.444Z,44.67
2022-08-27T14:42:14.173Z,44.67
2022-08-27T14:44:41.955Z,45.09
2022-08-27T14:47:10.241Z,44.58
2022-08-27T14:49:41.010Z,44.48
2022-08-27T14:52:10.199Z,44.82
2022-08-27T14:54:38.550Z,44.53
2022-08-27T14:57:06.658Z,44.79
2022-08-27T14:59:34.703Z,44.56
2022-08-27T15:02:04.507Z,44.85
2022-08-27T15:04:33.256Z,45.07
2022-08-27T15:07:02.511Z,44.82
2022-08-27T15:09:30.404Z,44.56
2022-08-27T15:11:58.599Z,44.50
2022-08-27T15:14:27.516Z,44.86
2022-08-27T15:16:55.780Z,44.73
2022-08-27T15:19:24.076Z,44.29
2022-08-27T15:21:52.312Z,44.74
2022-08-27T15:24:24.548Z,44.96
2022-08-27T15:26:52.777Z,44.61
2022-08-27T15:29:20.705Z,44.56
2022-08-27T15:31:48.554Z,44.49
2022-08-27T15:34:17.822Z,44.85
2022-08-27T15:36:45.661Z,45.11
2022-08-27T15:39:13.744Z,45.03
2022-08-27T15:42:07.698Z,44.95
2022-08-27T15:44:30.832Z,44.98
2022-08-27T15:46:58.661Z,44.53
2022-08-27T15:49:26.513Z,44.59
2022-08-27T15:51:54.840Z,45.02
2022-08-27T15:54:25.059Z,44.63
2022-08-27T15:56:54.382Z,44.78
2022-08-27T15:59:22.308Z,44.97
2022-08-27T16:01:50.237Z,44.91
2022-08-27T16:04:18.445Z,45.01
2022-08-27T16:06:46.200Z,44.78
2022-08-27T16:09:14.184Z,44.88
2022-08-27T16:11:43.266Z,44.42
2022-08-27T16:14:12.553Z,44.84
2022-08-27T16:16:40.470Z,45.17
2022-08-27T16:19:08.229Z,44.54
2022-08-27T16:21:36.639Z,44.87
2022-08-27T16:24:05.459Z,44.42
2022-08-27T16:26:33.355Z,45.10
2022-08-27T16:29:01.623Z,44.77
2022-08-27T16:31:32.527Z,45.17
2022-08-27T16:34:00.937Z,44.60
2022-08-27T16:36:29.550Z,44.53
2022-08-27T16:38:57.424Z,44.68
2022-08-27T16:41:25.242Z,45.04
2022-08-27T16:43:53.292Z,44.65
2022-08-27T16:46:21.207Z,44.44
2022-08-27T16:49:08.473Z,44.35
2022-08-27T16:51:37.673Z,44.39
2022-08-27T16:54:06.545Z,44.51
2022-08-27T16:56:37.774Z,44.50
2022-08-27T16:59:05.891Z,44.45
2022-08-27T17:01:34.320Z,44.36
2022-08-27T17:04:18.163Z,44.76
2022-08-27T17:06:52.385Z,44.47
2022-08-27T17:09:20.250Z,45.01
2022-08-27T17:11:52.914Z,44.64
2022-08-27T17:14:20.682Z,44.67
2022-08-27T17:16:50.021Z,44.44
2022-08-27T17:19:19.449Z,44.77
2022-08-27T17:21:47.688Z,44.49
2022-08-27T17:24:15.515Z,44.26
2022-08-27T17:26:43.265Z,44.96
2022-08-27T17:29:11.045Z,44.48
2022-08-27T17:31:40.149Z,44.73
2022-08-27T17:34:08.090Z,44.94
2022-08-27T17:36:37.272Z,45.06
2022-08-27T17:39:05.289Z,45.10
2022-08-27T17:41:34.477Z,44.46
2022-08-27T17:44:03.339Z,44.80
2022-08-27T17:46:31.305Z,45.06
2022-08-27T17:48:59.703Z,45.02
2022-08-27T17:51:27.906Z,44.55
2022-08-27T17:54:00.940Z,44.41
2022-08-27T17:56:29.395Z,44.69
2022-08-27T17:58:57.264Z,44.36
2022-08-27T18:01:28.426Z,44.33
2022-08-27T18:03:56.832Z,44.71
2022-08-27T18:06:24.860Z,44.65
2022-08-27T18:08:52.680Z,44.96
2022-08-27T18:11:21.865Z,44.72
2022-08-27T18:13:52.967Z,44.92
2022-08-27T18:16:20.892Z,44.61
2022-08-27T18:18:48.785Z,44.37
2022-08-27T18:21:25.167Z,44.57
2022-08-27T18:23:54.229Z,44.49
2022-08-27T18:26:24.319Z,44.60
2022-08-27T18:28:52.094Z,44.52
2022-08-27T18:31:20.240Z,44.52
2022-08-27T18:33:48.614Z,44.31
2022-08-27T18:36:16.440Z,44.42
2022-08-27T18:38:46.334Z,44.58
2022-08-27T18:41:14.378Z,44.98
2022-08-27T18:43:43.827Z,44.42
2022-08-27T18:46:11.846Z,44.29
2022-08-27T18:48:39.732Z,44.30
2022-08-27T18:51:09.080Z,44.31
2022-08-27T18:53:40.538Z,44.92
2022-08-27T18:56:08.567Z,44.41
2022-08-27T18:58:38.542Z,44.66
2022-08-27T19:01:10.783Z,44.74
2022-08-27T19:03:40.658Z,44.64
2022-08-27T19:06:09.785Z,44.25
2022-08-27T19:08:38.030Z,44.56
2022-08-27T19:11:05.945Z,44.75
2022-08-27T19:13:34.089Z,44.78
2022-08-27T19:16:02.948Z,44.86
2022-08-27T19:18:33.406Z,44.50
2022-08-27T19:21:01.171Z,44.68
2022-08-27T19:23:29.288Z,44.56
2022-08-27T19:25:57.076Z,44.34
2022-08-27T19:28:26.068Z,44.87
2022-08-27T19:30:53.943Z,44.84
2022-08-27T19:33:22.482Z,45.06
2022-08-27T19:35:51.712Z,44.77
2022-08-27T19:38:19.520Z,44.28
2022-08-27T19:40:47.396Z,44.74
2022-08-27T19:43:15.431Z,44.61
2022-08-27T19:45:43.347Z,44.73
2022-08-27T19:48:12.565Z,44.30
2022-08-27T19:50:41.318Z,44.54
2022-08-27T19:53:10.789Z,44.72
2022-08-27T19:55:45.146Z,44.49
2022-08-27T19:58:13.365Z,44.55
2022-08-27T20:00:41.516Z,44.61
2022-08-27T20:03:09.559Z,44.63
2022-08-27T20:05:37.517Z,44.94
2022-08-27T20:08:05.556Z,44.70
2022-08-27T20:10:36.489Z,44.34
2022-08-27T20:13:05.544Z,44.83
2022-08-27T20:15:33.400Z,45.10
2022-08-27T20:18:02.718Z,44.76
2022-08-27T20:20:31.354Z,45.03
2022-08-27T20:23:02.613Z,44.24
2022-08-27T20:25:30.680Z,44.67
2022-08-27T20:28:08.411Z,44.70
2022-08-27T20:30:45.082Z,44.33
2022-08-27T20:33:16.961Z,44.31
2022-08-27T20:35:44.782Z,44.33
2022-08-27T20:38:13.175Z,44.36
2022-08-27T20:40:41.154Z,44.27
2022-08-27T20:43:11.205Z,44.33
2022-08-27T20:45:39.244Z,44.33
2022-08-27T20:48:07.163Z,44.38
2022-08-27T20:50:34.934Z,44.39
2022-08-27T20:53:02.734Z,44.92
2022-08-27T20:55:30.508Z,44.39
2022-08-27T20:58:15.932Z,44.51
2022-08-27T21:00:45.810Z,44.34
2022-08-27T21:03:14.514Z,44.97
2022-08-27T21:05:47.024Z,44.25
2022-08-27T21:08:15.305Z,44.32
2022-08-27T21:10:45.708Z,44.54
2022-08-27T21:13:13.867Z,44.24
2022-08-27T21:15:41.713Z,44.49
2022-08-27T21:18:11.080Z,44.81
2022-08-27T21:20:39.049Z,44.53
2022-08-27T21:23:06.887Z,44.68
2022-08-27T21:25:36.116Z,44.89
2022-08-27T21:28:07.337Z,44.64
2022-08-27T21:30:35.366Z,44.22
2022-08-27T21:33:03.355Z,44.38
2022-08-27T21:35:32.874Z,44.85
2022-08-27T21:38:01.245Z,44.42
2022-08-27T21:40:29.880Z,44.45
2022-08-27T21:42:58.276Z,44.64
2022-08-27T21:45:26.221Z,44.95
2022-08-27T21:47:55.299Z,44.89
2022-08-27T21:50:23.263Z,44.77
2022-08-27T21:52:53.617Z,44.59
2022-08-27T21:55:21.768Z,44.64
2022-08-27T21:57:49.688Z,44.25
2022-08-27T22:00:36.847Z,44.17
2022-08-27T22:03:04.847Z,44.28
2022-08-27T22:05:39.125Z,44.78
2022-08-27T22:08:08.410Z,44.91
2022-08-27T22:10:36.330Z,44.18
2022-08-27T22:13:04.402Z,44.36
2022-08-27T22:15:32.450Z,44.32
2022-08-27T22:18:00.274Z,44.19
2022-08-27T22:20:28.596Z,44.74
2022-08-27T22:22:58.860Z,44.15
2022-08-27T22:25:28.423Z,44.49
2022-08-27T22:27:56.375Z,44.10
2022-08-27T22:30:24.145Z,44.30
2022-08-27T22:32:52.342Z,44.48
2022-08-27T22:35:20.237Z,44.32
2022-08-27T22:37:48.356Z,44.32
2022-08-27T22:40:19.977Z,44.52
2022-08-27T22:42:49.742Z,44.47
2022-08-27T22:45:17.669Z,44.54
2022-08-27T22:47:45.502Z,44.14
2022-08-27T22:50:13.453Z,44.08
2022-08-27T22:52:42.217Z,44.27
2022-08-27T22:55:10.883Z,44.58
2022-08-27T22:57:38.890Z,44.66
2022-08-27T23:00:11.884Z,44.71
2022-08-27T23:02:39.958Z,44.06
2022-08-27T23:05:08.581Z,44.07
2022-08-27T23:07:36.689Z,44.24
2022-08-27T23:10:05.373Z,44.50
2022-08-27T23:12:37.318Z,44.59
2022-08-27T23:15:11.481Z,44.20
2022-08-27T23:17:39.253Z,44.41
2022-08-27T23:20:07.828Z,44.09
2022-08-27T23:22:36.268Z,44.72
2022-08-27T23:25:20.911Z,44.39
2022-08-27T23:27:48.704Z,44.40
2022-08-27T23:30:18.345Z,44.19
2022-08-27T23:32:48.857Z,44.56
2022-08-27T23:35:22.848Z,44.06
2022-08-27T23:37:51.235Z,44.57
2022-08-27T23:40:19.337Z,44.11
2022-08-27T23:42:47.825Z,44.44
2022-08-27T23:45:18.162Z,44.01
2022-08-27T23:47:45.918Z,44.60
2022-08-27T23:50:13.698Z,44.18
2022-08-27T23:52:41.738Z,43.97
2022-08-27T23:55:10.482Z,44.46
2022-08-27T23:57:38.332Z,44.32
